sensor_id;sensor_type;location;lat;lon;timestamp;P1;durP1;ratioP1;P2;durP2;ratioP2
67378;SDS011;54262;44.642;-0.974;2022-11-20T00:02:04;10.32;;;9.63;;
67378;SDS011;54262;44.642;-0.974;2022-11-20T00:04:30;13.00;;;10.98;;
67378;SDS011;54262;44.642;-0.974;2022-11-20T00:06:56;11.50;;;9.02;;
67378;SDS011;54262;44.642;-0.974;2022-11-20T00:09:22;10.50;;;9.60;;
67378;SDS011;54262;44.642;-0.974;2022-11-20T00:11:48;9.90;;;9.25;;
67378;SDS011;54262;44.642;-0.974;2022-11-20T00:14:14;11.70;;;9.20;;
67378;SDS011;54262;44.642;-0.974;2022-11-20T00:16:40;17.92;;;9.85;;
67378;SDS011;54262;44.642;-0.974;2022-11-20T00:19:07;11.90;;;9.15;;
67378;SDS011;54262;44.642;-0.974;2022-11-20T00:21:33;16.08;;;9.48;;
67378;SDS011;54262;44.642;-0.974;2022-11-20T00:23:59;10.35;;;9.65;;
67378;SDS011;54262;44.642;-0.974;2022-11-20T00:26:25;18.23;;;9.80;;
67378;SDS011;54262;44.642;-0.974;2022-11-20T00:28:53;11.05;;;9.57;;
67378;SDS011;54262;44.642;-0.974;2022-11-20T00:31:19;9.82;;;8.70;;
67378;SDS011;54262;44.642;-0.974;2022-11-20T00:33:46;15.90;;;9.02;;
67378;SDS011;54262;44.642;-0.974;2022-11-20T00:36:19;8.70;;;8.00;;
67378;SDS011;54262;44.642;-0.974;2022-11-20T00:38:45;8.52;;;7.68;;
67378;SDS011;54262;44.642;-0.974;2022-11-20T00:41:13;10.13;;;7.60;;
67378;SDS011;54262;44.642;-0.974;2022-11-20T00:43:39;8.40;;;7.80;;
67378;SDS011;54262;44.642;-0.974;2022-11-20T00:46:07;8.43;;;7.63;;
67378;SDS011;54262;44.642;-0.974;2022-11-20T00:48:33;9.35;;;6.93;;
67378;SDS011;54262;44.642;-0.974;2022-11-20T00:50:59;11.15;;;8.00;;
67378;SDS011;54262;44.642;-0.974;2022-11-20T00:53:26;9.30;;;8.40;;
67378;SDS011;54262;44.642;-0.974;2022-11-20T00:55:56;8.77;;;7.78;;
67378;SDS011;54262;44.642;-0.974;2022-11-20T00:58:23;9.85;;;7.68;;
67378;SDS011;54262;44.642;-0.974;2022-11-20T01:00:49;10.35;;;7.07;;
67378;SDS011;54262;44.642;-0.974;2022-11-20T01:03:16;8.70;;;7.55;;
67378;SDS011;54262;44.642;-0.974;2022-11-20T01:05:42;8.30;;;7.47;;
67378;SDS011;54262;44.642;-0.974;2022-11-20T01:08:08;11.38;;;7.03;;
67378;SDS011;54262;44.642;-0.974;2022-11-20T01:10:34;17.83;;;7.25;;
67378;SDS011;54262;44.642;-0.974;2022-11-20T01:13:00;8.00;;;6.55;;
67378;SDS011;54262;44.642;-0.974;2022-11-20T01:15:45;14.18;;;6.30;;
67378;SDS011;54262;44.642;-0.974;2022-11-20T01:18:11;10.05;;;6.50;;
67378;SDS011;54262;44.642;-0.974;2022-11-20T01:20:37;6.72;;;6.00;;
67378;SDS011;54262;44.642;-0.974;2022-11-20T01:23:03;16.75;;;6.32;;
67378;SDS011;54262;44.642;-0.974;2022-11-20T01:25:30;8.98;;;5.82;;
67378;SDS011;54262;44.642;-0.974;2022-11-20T01:27:56;9.98;;;5.22;;
67378;SDS011;54262;44.642;-0.974;2022-11-20T01:30:22;10.35;;;5.65;;
67378;SDS011;54262;44.642;-0.974;2022-11-20T01:32:48;5.40;;;4.95;;
67378;SDS011;54262;44.642;-0.974;2022-11-20T01:35:14;9.98;;;5.13;;
67378;SDS011;54262;44.642;-0.974;2022-11-20T01:37:40;6.90;;;4.53;;
67378;SDS011;54262;44.642;-0.974;2022-11-20T01:40:07;7.90;;;4.22;;
67378;SDS011;54262;44.642;-0.974;2022-11-20T01:42:33;5.85;;;3.90;;
67378;SDS011;54262;44.642;-0.974;2022-11-20T01:48:03;5.63;;;3.85;;
67378;SDS011;54262;44.642;-0.974;2022-11-20T01:50:29;7.05;;;4.20;;
67378;SDS011;54262;44.642;-0.974;2022-11-20T01:52:56;4.93;;;3.85;;
67378;SDS011;54262;44.642;-0.974;2022-11-20T01:55:25;7.95;;;5.03;;
67378;SDS011;54262;44.642;-0.974;2022-11-20T01:57:51;4.40;;;4.00;;
67378;SDS011;54262;44.642;-0.974;2022-11-20T02:00:18;6.80;;;4.07;;
67378;SDS011;54262;44.642;-0.974;2022-11-20T02:02:47;6.05;;;4.00;;
67378;SDS011;54262;44.642;-0.974;2022-11-20T02:05:36;7.32;;;4.40;;
67378;SDS011;54262;44.642;-0.974;2022-11-20T02:08:00;8.73;;;4.43;;
67378;SDS011;54262;44.642;-0.974;2022-11-20T02:10:28;6.32;;;3.90;;
67378;SDS011;54262;44.642;-0.974;2022-11-20T02:12:55;3.78;;;3.45;;
67378;SDS011;54262;44.642;-0.974;2022-11-20T02:15:40;6.65;;;4.35;;
67378;SDS011;54262;44.642;-0.974;2022-11-20T02:18:06;3.78;;;3.58;;
67378;SDS011;54262;44.642;-0.974;2022-11-20T02:20:33;5.07;;;3.20;;
67378;SDS011;54262;44.642;-0.974;2022-11-20T02:23:02;5.82;;;4.72;;
67378;SDS011;54262;44.642;-0.974;2022-11-20T02:25:30;5.63;;;3.85;;
67378;SDS011;54262;44.642;-0.974;2022-11-20T02:27:58;5.80;;;3.85;;
67378;SDS011;54262;44.642;-0.974;2022-11-20T02:30:24;8.02;;;4.47;;
67378;SDS011;54262;44.642;-0.974;2022-11-20T02:32:50;4.45;;;3.67;;
67378;SDS011;54262;44.642;-0.974;2022-11-20T02:37:50;5.97;;;3.22;;
67378;SDS011;54262;44.642;-0.974;2022-11-20T02:40:16;7.05;;;3.13;;
67378;SDS011;54262;44.642;-0.974;2022-11-20T02:42:42;5.32;;;3.33;;
67378;SDS011;54262;44.642;-0.974;2022-11-20T02:45:09;9.15;;;3.38;;
67378;SDS011;54262;44.642;-0.974;2022-11-20T02:47:35;5.55;;;2.90;;
67378;SDS011;54262;44.642;-0.974;2022-11-20T02:50:01;7.88;;;3.15;;
67378;SDS011;54262;44.642;-0.974;2022-11-20T02:52:27;6.47;;;3.50;;
67378;SDS011;54262;44.642;-0.974;2022-11-20T02:54:53;4.47;;;2.70;;
67378;SDS011;54262;44.642;-0.974;2022-11-20T02:57:19;3.35;;;3.05;;
67378;SDS011;54262;44.642;-0.974;2022-11-20T02:59:45;8.27;;;3.05;;
67378;SDS011;54262;44.642;-0.974;2022-11-20T03:02:12;4.97;;;2.65;;
67378;SDS011;54262;44.642;-0.974;2022-11-20T03:04:38;3.47;;;2.67;;
67378;SDS011;54262;44.642;-0.974;2022-11-20T03:07:04;4.53;;;2.60;;
67378;SDS011;54262;44.642;-0.974;2022-11-20T03:09:30;8.93;;;4.00;;
67378;SDS011;54262;44.642;-0.974;2022-11-20T03:11:56;10.10;;;4.40;;
67378;SDS011;54262;44.642;-0.974;2022-11-20T03:14:22;7.18;;;3.97;;
67378;SDS011;54262;44.642;-0.974;2022-11-20T03:16:48;14.93;;;4.43;;
67378;SDS011;54262;44.642;-0.974;2022-11-20T03:19:14;8.10;;;3.65;;
67378;SDS011;54262;44.642;-0.974;2022-11-20T03:21:40;7.65;;;2.90;;
67378;SDS011;54262;44.642;-0.974;2022-11-20T03:24:06;5.43;;;3.08;;
67378;SDS011;54262;44.642;-0.974;2022-11-20T03:26:33;3.28;;;2.70;;
67378;SDS011;54262;44.642;-0.974;2022-11-20T03:29:00;3.25;;;2.63;;
67378;SDS011;54262;44.642;-0.974;2022-11-20T03:31:30;3.05;;;2.85;;
67378;SDS011;54262;44.642;-0.974;2022-11-20T03:33:57;6.38;;;2.95;;
67378;SDS011;54262;44.642;-0.974;2022-11-20T03:36:23;4.82;;;2.72;;
67378;SDS011;54262;44.642;-0.974;2022-11-20T03:38:50;2.97;;;2.65;;
67378;SDS011;54262;44.642;-0.974;2022-11-20T03:41:20;2.92;;;2.22;;
67378;SDS011;54262;44.642;-0.974;2022-11-20T03:43:54;4.97;;;2.35;;
67378;SDS011;54262;44.642;-0.974;2022-11-20T03:46:20;2.40;;;2.13;;
67378;SDS011;54262;44.642;-0.974;2022-11-20T03:48:46;5.68;;;1.90;;
67378;SDS011;54262;44.642;-0.974;2022-11-20T03:51:17;6.30;;;2.88;;
67378;SDS011;54262;44.642;-0.974;2022-11-20T03:53:44;2.95;;;2.05;;
67378;SDS011;54262;44.642;-0.974;2022-11-20T03:56:10;2.13;;;1.65;;
67378;SDS011;54262;44.642;-0.974;2022-11-20T03:58:37;2.38;;;2.05;;
67378;SDS011;54262;44.642;-0.974;2022-11-20T04:01:07;3.47;;;1.73;;
67378;SDS011;54262;44.642;-0.974;2022-11-20T04:03:34;2.20;;;2.00;;
67378;SDS011;54262;44.642;-0.974;2022-11-20T04:06:01;5.60;;;2.38;;
67378;SDS011;54262;44.642;-0.974;2022-11-20T04:08:28;3.53;;;1.60;;
67378;SDS011;54262;44.642;-0.974;2022-11-20T04:10:54;2.40;;;2.13;;
67378;SDS011;54262;44.642;-0.974;2022-11-20T04:13:20;3.85;;;1.42;;
67378;SDS011;54262;44.642;-0.974;2022-11-20T04:15:46;3.55;;;1.80;;
67378;SDS011;54262;44.642;-0.974;2022-11-20T04:18:12;4.53;;;1.30;;
67378;SDS011;54262;44.642;-0.974;2022-11-20T04:20:38;1.70;;;1.60;;
67378;SDS011;54262;44.642;-0.974;2022-11-20T04:23:04;1.83;;;1.55;;
67378;SDS011;54262;44.642;-0.974;2022-11-20T04:25:30;1.83;;;1.73;;
67378;SDS011;54262;44.642;-0.974;2022-11-20T04:27:56;2.90;;;1.48;;
67378;SDS011;54262;44.642;-0.974;2022-11-20T04:30:23;6.28;;;1.60;;
67378;SDS011;54262;44.642;-0.974;2022-11-20T04:32:49;1.45;;;1.30;;
67378;SDS011;54262;44.642;-0.974;2022-11-20T04:35:15;1.88;;;1.40;;
67378;SDS011;54262;44.642;-0.974;2022-11-20T04:37:41;3.13;;;1.33;;
67378;SDS011;54262;44.642;-0.974;2022-11-20T04:40:07;4.00;;;1.60;;
67378;SDS011;54262;44.642;-0.974;2022-11-20T04:42:33;4.30;;;1.30;;
67378;SDS011;54262;44.642;-0.974;2022-11-20T04:44:59;3.88;;;1.42;;
67378;SDS011;54262;44.642;-0.974;2022-11-20T04:47:25;7.70;;;1.67;;
67378;SDS011;54262;44.642;-0.974;2022-11-20T04:49:51;3.88;;;1.38;;
67378;SDS011;54262;44.642;-0.974;2022-11-20T04:52:18;2.83;;;1.45;;
67378;SDS011;54262;44.642;-0.974;2022-11-20T04:54:44;6.93;;;1.90;;
67378;SDS011;54262;44.642;-0.974;2022-11-20T04:57:10;2.55;;;1.70;;
67378;SDS011;54262;44.642;-0.974;2022-11-20T04:59:38;4.97;;;2.38;;
67378;SDS011;54262;44.642;-0.974;2022-11-20T05:02:04;4.85;;;1.50;;
67378;SDS011;54262;44.642;-0.974;2022-11-20T05:04:30;3.80;;;1.85;;
67378;SDS011;54262;44.642;-0.974;2022-11-20T05:06:56;5.30;;;1.75;;
67378;SDS011;54262;44.642;-0.974;2022-11-20T05:09:22;2.28;;;1.55;;
67378;SDS011;54262;44.642;-0.974;2022-11-20T05:11:48;1.73;;;1.52;;
67378;SDS011;54262;44.642;-0.974;2022-11-20T05:14:14;4.65;;;1.70;;
67378;SDS011;54262;44.642;-0.974;2022-11-20T05:16:40;2.17;;;1.38;;
67378;SDS011;54262;44.642;-0.974;2022-11-20T05:19:06;1.23;;;1.02;;
67378;SDS011;54262;44.642;-0.974;2022-11-20T05:21:32;5.47;;;1.88;;
67378;SDS011;54262;44.642;-0.974;2022-11-20T05:23:59;1.60;;;1.50;;
67378;SDS011;54262;44.642;-0.974;2022-11-20T05:26:25;3.08;;;2.10;;
67378;SDS011;54262;44.642;-0.974;2022-11-20T05:28:51;2.08;;;1.50;;
67378;SDS011;54262;44.642;-0.974;2022-11-20T05:31:18;3.58;;;1.90;;
67378;SDS011;54262;44.642;-0.974;2022-11-20T05:33:44;2.40;;;1.50;;
67378;SDS011;54262;44.642;-0.974;2022-11-20T05:36:14;3.13;;;2.50;;
67378;SDS011;54262;44.642;-0.974;2022-11-20T05:38:40;3.63;;;2.05;;
67378;SDS011;54262;44.642;-0.974;2022-11-20T05:41:08;3.58;;;1.77;;
67378;SDS011;54262;44.642;-0.974;2022-11-20T05:43:34;3.85;;;2.08;;
67378;SDS011;54262;44.642;-0.974;2022-11-20T05:46:01;1.65;;;1.27;;
67378;SDS011;54262;44.642;-0.974;2022-11-20T05:48:27;5.57;;;1.70;;
67378;SDS011;54262;44.642;-0.974;2022-11-20T05:50:54;3.40;;;1.30;;
67378;SDS011;54262;44.642;-0.974;2022-11-20T05:53:20;2.40;;;1.63;;
67378;SDS011;54262;44.642;-0.974;2022-11-20T05:55:46;1.92;;;1.15;;
67378;SDS011;54262;44.642;-0.974;2022-11-20T05:58:12;4.18;;;1.15;;
67378;SDS011;54262;44.642;-0.974;2022-11-20T06:00:38;2.90;;;2.33;;
67378;SDS011;54262;44.642;-0.974;2022-11-20T06:03:04;2.35;;;1.60;;
67378;SDS011;54262;44.642;-0.974;2022-11-20T06:05:30;3.75;;;2.30;;
67378;SDS011;54262;44.642;-0.974;2022-11-20T06:07:56;10.10;;;2.10;;
67378;SDS011;54262;44.642;-0.974;2022-11-20T06:10:22;4.50;;;3.00;;
67378;SDS011;54262;44.642;-0.974;2022-11-20T06:12:48;4.22;;;2.28;;
67378;SDS011;54262;44.642;-0.974;2022-11-20T06:15:14;2.90;;;2.70;;
67378;SDS011;54262;44.642;-0.974;2022-11-20T06:17:41;3.85;;;2.00;;
67378;SDS011;54262;44.642;-0.974;2022-11-20T06:20:07;4.70;;;2.63;;
67378;SDS011;54262;44.642;-0.974;2022-11-20T06:22:33;4.28;;;2.95;;
67378;SDS011;54262;44.642;-0.974;2022-11-20T06:24:59;2.30;;;2.10;;
67378;SDS011;54262;44.642;-0.974;2022-11-20T06:27:25;3.22;;;1.88;;
67378;SDS011;54262;44.642;-0.974;2022-11-20T06:29:52;6.80;;;1.75;;
67378;SDS011;54262;44.642;-0.974;2022-11-20T06:32:18;2.92;;;1.33;;
67378;SDS011;54262;44.642;-0.974;2022-11-20T06:34:44;1.40;;;1.30;;
67378;SDS011;54262;44.642;-0.974;2022-11-20T06:37:10;2.70;;;1.35;;
67378;SDS011;54262;44.642;-0.974;2022-11-20T06:39:37;4.05;;;1.42;;
67378;SDS011;54262;44.642;-0.974;2022-11-20T06:42:03;1.67;;;1.58;;
67378;SDS011;54262;44.642;-0.974;2022-11-20T06:44:29;2.17;;;2.00;;
67378;SDS011;54262;44.642;-0.974;2022-11-20T06:46:55;3.63;;;1.90;;
67378;SDS011;54262;44.642;-0.974;2022-11-20T06:49:21;4.38;;;2.10;;
67378;SDS011;54262;44.642;-0.974;2022-11-20T06:51:47;2.17;;;1.98;;
67378;SDS011;54262;44.642;-0.974;2022-11-20T06:54:13;1.58;;;1.48;;
67378;SDS011;54262;44.642;-0.974;2022-11-20T06:56:40;3.60;;;1.40;;
67378;SDS011;54262;44.642;-0.974;2022-11-20T06:59:06;4.82;;;2.08;;
67378;SDS011;54262;44.642;-0.974;2022-11-20T07:01:33;3.28;;;1.40;;
67378;SDS011;54262;44.642;-0.974;2022-11-20T07:04:00;1.30;;;1.10;;
67378;SDS011;54262;44.642;-0.974;2022-11-20T07:06:26;2.17;;;1.38;;
67378;SDS011;54262;44.642;-0.974;2022-11-20T07:08:52;3.47;;;1.70;;
67378;SDS011;54262;44.642;-0.974;2022-11-20T07:11:18;4.80;;;1.60;;
67378;SDS011;54262;44.642;-0.974;2022-11-20T07:13:44;4.45;;;2.00;;
67378;SDS011;54262;44.642;-0.974;2022-11-20T07:16:10;2.58;;;1.63;;
67378;SDS011;54262;44.642;-0.974;2022-11-20T07:18:36;5.05;;;1.48;;
67378;SDS011;54262;44.642;-0.974;2022-11-20T07:21:04;3.85;;;2.35;;
67378;SDS011;54262;44.642;-0.974;2022-11-20T07:23:30;3.70;;;2.05;;
67378;SDS011;54262;44.642;-0.974;2022-11-20T07:25:56;3.08;;;2.17;;
67378;SDS011;54262;44.642;-0.974;2022-11-20T07:28:22;3.17;;;1.90;;
67378;SDS011;54262;44.642;-0.974;2022-11-20T07:30:49;3.47;;;2.30;;
67378;SDS011;54262;44.642;-0.974;2022-11-20T07:33:15;2.60;;;2.15;;
67378;SDS011;54262;44.642;-0.974;2022-11-20T07:35:41;4.25;;;1.60;;
67378;SDS011;54262;44.642;-0.974;2022-11-20T07:38:08;4.18;;;2.40;;
67378;SDS011;54262;44.642;-0.974;2022-11-20T07:40:34;4.47;;;2.50;;
67378;SDS011;54262;44.642;-0.974;2022-11-20T07:43:00;4.40;;;1.60;;
67378;SDS011;54262;44.642;-0.974;2022-11-20T07:45:26;4.00;;;2.05;;
67378;SDS011;54262;44.642;-0.974;2022-11-20T07:47:52;5.00;;;1.88;;
67378;SDS011;54262;44.642;-0.974;2022-11-20T07:50:19;3.05;;;1.88;;
67378;SDS011;54262;44.642;-0.974;2022-11-20T07:52:45;8.07;;;2.67;;
67378;SDS011;54262;44.642;-0.974;2022-11-20T07:55:14;4.88;;;2.92;;
67378;SDS011;54262;44.642;-0.974;2022-11-20T07:57:41;10.50;;;5.45;;
67378;SDS011;54262;44.642;-0.974;2022-11-20T08:00:08;16.80;;;6.35;;
67378;SDS011;54262;44.642;-0.974;2022-11-20T08:02:36;5.30;;;2.72;;
67378;SDS011;54262;44.642;-0.974;2022-11-20T08:05:03;2.33;;;1.70;;
67378;SDS011;54262;44.642;-0.974;2022-11-20T08:07:34;3.30;;;1.60;;
67378;SDS011;54262;44.642;-0.974;2022-11-20T08:10:00;3.80;;;1.60;;
67378;SDS011;54262;44.642;-0.974;2022-11-20T08:12:27;8.77;;;1.52;;
67378;SDS011;54262;44.642;-0.974;2022-11-20T08:17:37;16.63;;;5.15;;
67378;SDS011;54262;44.642;-0.974;2022-11-20T08:20:03;23.33;;;8.13;;
67378;SDS011;54262;44.642;-0.974;2022-11-20T08:22:30;54.83;;;12.25;;
67378;SDS011;54262;44.642;-0.974;2022-11-20T08:24:56;50.72;;;10.70;;
67378;SDS011;54262;44.642;-0.974;2022-11-20T08:27:22;14.90;;;3.70;;
67378;SDS011;54262;44.642;-0.974;2022-11-20T08:29:48;33.15;;;9.00;;
67378;SDS011;54262;44.642;-0.974;2022-11-20T08:32:15;3.72;;;3.10;;
67378;SDS011;54262;44.642;-0.974;2022-11-20T08:34:41;17.63;;;6.85;;
67378;SDS011;54262;44.642;-0.974;2022-11-20T08:37:07;25.20;;;7.45;;
67378;SDS011;54262;44.642;-0.974;2022-11-20T08:39:33;27.20;;;8.13;;
67378;SDS011;54262;44.642;-0.974;2022-11-20T08:41:59;29.70;;;9.23;;
67378;SDS011;54262;44.642;-0.974;2022-11-20T08:44:25;5.50;;;2.80;;
67378;SDS011;54262;44.642;-0.974;2022-11-20T08:46:51;3.20;;;2.78;;
67378;SDS011;54262;44.642;-0.974;2022-11-20T08:49:17;5.32;;;3.58;;
67378;SDS011;54262;44.642;-0.974;2022-11-20T08:51:43;4.90;;;2.50;;
67378;SDS011;54262;44.642;-0.974;2022-11-20T08:54:10;4.18;;;2.15;;
67378;SDS011;54262;44.642;-0.974;2022-11-20T08:56:36;5.28;;;2.08;;
67378;SDS011;54262;44.642;-0.974;2022-11-20T08:59:02;2.40;;;2.20;;
67378;SDS011;54262;44.642;-0.974;2022-11-20T09:01:29;2.75;;;2.47;;
67378;SDS011;54262;44.642;-0.974;2022-11-20T09:03:55;2.83;;;2.63;;
67378;SDS011;54262;44.642;-0.974;2022-11-20T09:06:22;3.83;;;2.13;;
67378;SDS011;54262;44.642;-0.974;2022-11-20T09:08:51;2.47;;;1.88;;
67378;SDS011;54262;44.642;-0.974;2022-11-20T09:11:17;4.38;;;3.88;;
67378;SDS011;54262;44.642;-0.974;2022-11-20T09:13:44;1.88;;;1.75;;
67378;SDS011;54262;44.642;-0.974;2022-11-20T09:16:10;5.68;;;3.13;;
67378;SDS011;54262;44.642;-0.974;2022-11-20T09:18:36;3.22;;;1.80;;
67378;SDS011;54262;44.642;-0.974;2022-11-20T09:21:04;3.50;;;2.08;;
67378;SDS011;54262;44.642;-0.974;2022-11-20T09:23:31;3.83;;;2.50;;
67378;SDS011;54262;44.642;-0.974;2022-11-20T09:25:58;2.67;;;2.47;;
67378;SDS011;54262;44.642;-0.974;2022-11-20T09:28:27;4.07;;;2.42;;
67378;SDS011;54262;44.642;-0.974;2022-11-20T09:30:53;11.13;;;6.25;;
67378;SDS011;54262;44.642;-0.974;2022-11-20T09:33:19;6.80;;;3.40;;
67378;SDS011;54262;44.642;-0.974;2022-11-20T09:35:45;3.72;;;2.45;;
67378;SDS011;54262;44.642;-0.974;2022-11-20T09:38:11;2.60;;;2.30;;
67378;SDS011;54262;44.642;-0.974;2022-11-20T09:40:39;2.20;;;1.77;;
67378;SDS011;54262;44.642;-0.974;2022-11-20T09:43:11;3.30;;;2.88;;
67378;SDS011;54262;44.642;-0.974;2022-11-20T09:45:49;3.13;;;2.72;;
67378;SDS011;54262;44.642;-0.974;2022-11-20T09:55:37;2.13;;;1.73;;
67378;SDS011;54262;44.642;-0.974;2022-11-20T09:58:07;2.53;;;1.63;;
67378;SDS011;54262;44.642;-0.974;2022-11-20T10:03:13;2.30;;;1.50;;
67378;SDS011;54262;44.642;-0.974;2022-11-20T10:05:51;2.78;;;1.63;;
67378;SDS011;54262;44.642;-0.974;2022-11-20T10:13:40;1.65;;;1.30;;
67378;SDS011;54262;44.642;-0.974;2022-11-20T10:16:27;3.38;;;1.13;;
67378;SDS011;54262;44.642;-0.974;2022-11-20T10:29:13;2.40;;;1.92;;
67378;SDS011;54262;44.642;-0.974;2022-11-20T10:31:44;4.25;;;2.90;;
67378;SDS011;54262;44.642;-0.974;2022-11-20T10:34:18;10.40;;;4.15;;
67378;SDS011;54262;44.642;-0.974;2022-11-20T10:36:47;17.50;;;4.97;;
67378;SDS011;54262;44.642;-0.974;2022-11-20T10:39:21;18.50;;;4.80;;
67378;SDS011;54262;44.642;-0.974;2022-11-20T10:41:49;10.45;;;3.45;;
67378;SDS011;54262;44.642;-0.974;2022-11-20T10:44:17;16.05;;;5.07;;
67378;SDS011;54262;44.642;-0.974;2022-11-20T10:47:04;27.73;;;6.72;;
67378;SDS011;54262;44.642;-0.974;2022-11-20T10:49:30;7.60;;;2.88;;
67378;SDS011;54262;44.642;-0.974;2022-11-20T10:56:59;19.42;;;5.47;;
67378;SDS011;54262;44.642;-0.974;2022-11-20T11:01:53;4.13;;;2.53;;
67378;SDS011;54262;44.642;-0.974;2022-11-20T11:07:16;10.32;;;3.25;;
67378;SDS011;54262;44.642;-0.974;2022-11-20T11:09:46;21.48;;;5.30;;
67378;SDS011;54262;44.642;-0.974;2022-11-20T11:12:13;3.15;;;2.30;;
67378;SDS011;54262;44.642;-0.974;2022-11-20T11:14:43;4.60;;;2.22;;
67378;SDS011;54262;44.642;-0.974;2022-11-20T11:17:18;9.35;;;3.42;;
67378;SDS011;54262;44.642;-0.974;2022-11-20T11:19:45;7.32;;;2.20;;
67378;SDS011;54262;44.642;-0.974;2022-11-20T11:22:15;4.95;;;2.30;;
67378;SDS011;54262;44.642;-0.974;2022-11-20T11:24:50;2.88;;;2.15;;
67378;SDS011;54262;44.642;-0.974;2022-11-20T11:27:17;8.52;;;2.97;;
67378;SDS011;54262;44.642;-0.974;2022-11-20T11:29:43;25.95;;;5.10;;
67378;SDS011;54262;44.642;-0.974;2022-11-20T11:32:19;6.25;;;3.58;;
67378;SDS011;54262;44.642;-0.974;2022-11-20T11:34:59;7.90;;;3.40;;
67378;SDS011;54262;44.642;-0.974;2022-11-20T11:37:25;11.30;;;3.78;;
67378;SDS011;54262;44.642;-0.974;2022-11-20T11:39:54;5.97;;;2.75;;
67378;SDS011;54262;44.642;-0.974;2022-11-20T11:42:20;9.40;;;4.10;;
67378;SDS011;54262;44.642;-0.974;2022-11-20T11:44:47;6.80;;;3.30;;
67378;SDS011;54262;44.642;-0.974;2022-11-20T11:47:43;26.65;;;8.70;;
67378;SDS011;54262;44.642;-0.974;2022-11-20T12:00:20;11.93;;;4.70;;
67378;SDS011;54262;44.642;-0.974;2022-11-20T12:05:20;18.77;;;4.97;;
67378;SDS011;54262;44.642;-0.974;2022-11-20T12:07:49;9.57;;;2.75;;
67378;SDS011;54262;44.642;-0.974;2022-11-20T12:12:46;10.57;;;3.38;;
67378;SDS011;54262;44.642;-0.974;2022-11-20T12:15:16;15.77;;;3.85;;
67378;SDS011;54262;44.642;-0.974;2022-11-20T12:17:45;10.48;;;3.55;;
67378;SDS011;54262;44.642;-0.974;2022-11-20T12:20:13;7.93;;;3.22;;
67378;SDS011;54262;44.642;-0.974;2022-11-20T12:23:14;17.75;;;4.53;;
67378;SDS011;54262;44.642;-0.974;2022-11-20T12:25:32;12.55;;;4.13;;
67378;SDS011;54262;44.642;-0.974;2022-11-20T12:30:29;15.30;;;4.82;;
67378;SDS011;54262;44.642;-0.974;2022-11-20T12:33:10;12.65;;;3.40;;
67378;SDS011;54262;44.642;-0.974;2022-11-20T12:35:44;9.27;;;2.80;;
67378;SDS011;54262;44.642;-0.974;2022-11-20T12:47:19;17.85;;;4.10;;
67378;SDS011;54262;44.642;-0.974;2022-11-20T12:52:34;9.93;;;3.47;;
67378;SDS011;54262;44.642;-0.974;2022-11-20T12:55:20;19.75;;;3.90;;
67378;SDS011;54262;44.642;-0.974;2022-11-20T12:57:58;5.57;;;2.30;;
67378;SDS011;54262;44.642;-0.974;2022-11-20T13:00:24;4.10;;;2.30;;
67378;SDS011;54262;44.642;-0.974;2022-11-20T13:03:10;14.18;;;3.30;;
67378;SDS011;54262;44.642;-0.974;2022-11-20T13:08:18;10.57;;;3.22;;
67378;SDS011;54262;44.642;-0.974;2022-11-20T13:10:49;5.32;;;3.13;;
67378;SDS011;54262;44.642;-0.974;2022-11-20T13:15:47;13.50;;;3.45;;
67378;SDS011;54262;44.642;-0.974;2022-11-20T13:18:16;6.65;;;2.67;;
67378;SDS011;54262;44.642;-0.974;2022-11-20T13:20:43;11.98;;;3.28;;
67378;SDS011;54262;44.642;-0.974;2022-11-20T13:23:10;6.72;;;2.78;;
67378;SDS011;54262;44.642;-0.974;2022-11-20T13:25:37;9.82;;;2.40;;
67378;SDS011;54262;44.642;-0.974;2022-11-20T13:30:36;10.93;;;2.72;;
67378;SDS011;54262;44.642;-0.974;2022-11-20T13:33:09;8.00;;;2.85;;
67378;SDS011;54262;44.642;-0.974;2022-11-20T13:35:55;5.00;;;2.50;;
67378;SDS011;54262;44.642;-0.974;2022-11-20T13:38:22;4.53;;;2.80;;
67378;SDS011;54262;44.642;-0.974;2022-11-20T13:40:57;7.95;;;2.97;;
67378;SDS011;54262;44.642;-0.974;2022-11-20T13:43:28;10.77;;;3.92;;
67378;SDS011;54262;44.642;-0.974;2022-11-20T13:45:55;8.40;;;3.05;;
67378;SDS011;54262;44.642;-0.974;2022-11-20T13:48:22;7.28;;;2.47;;
67378;SDS011;54262;44.642;-0.974;2022-11-20T14:01:46;5.88;;;2.90;;
67378;SDS011;54262;44.642;-0.974;2022-11-20T14:04:14;17.75;;;2.83;;
67378;SDS011;54262;44.642;-0.974;2022-11-20T14:06:42;12.63;;;3.35;;
67378;SDS011;54262;44.642;-0.974;2022-11-20T14:09:10;10.20;;;3.08;;
67378;SDS011;54262;44.642;-0.974;2022-11-20T14:11:44;15.50;;;5.60;;
67378;SDS011;54262;44.642;-0.974;2022-11-20T14:16:40;7.65;;;3.35;;
67378;SDS011;54262;44.642;-0.974;2022-11-20T14:21:46;9.35;;;3.80;;
67378;SDS011;54262;44.642;-0.974;2022-11-20T14:24:12;6.18;;;3.03;;
67378;SDS011;54262;44.642;-0.974;2022-11-20T14:26:44;5.93;;;2.38;;
67378;SDS011;54262;44.642;-0.974;2022-11-20T14:29:13;14.73;;;4.40;;
67378;SDS011;54262;44.642;-0.974;2022-11-20T14:31:39;11.32;;;5.60;;
67378;SDS011;54262;44.642;-0.974;2022-11-20T14:34:10;10.23;;;5.22;;
67378;SDS011;54262;44.642;-0.974;2022-11-20T14:36:38;10.13;;;4.47;;
67378;SDS011;54262;44.642;-0.974;2022-11-20T14:39:05;3.85;;;2.72;;
67378;SDS011;54262;44.642;-0.974;2022-11-20T14:41:31;9.05;;;3.97;;
67378;SDS011;54262;44.642;-0.974;2022-11-20T14:43:57;13.55;;;5.05;;
67378;SDS011;54262;44.642;-0.974;2022-11-20T14:46:24;11.20;;;4.10;;
67378;SDS011;54262;44.642;-0.974;2022-11-20T14:48:54;12.48;;;3.53;;
67378;SDS011;54262;44.642;-0.974;2022-11-20T14:51:28;9.52;;;3.88;;
67378;SDS011;54262;44.642;-0.974;2022-11-20T14:53:55;3.95;;;2.35;;
67378;SDS011;54262;44.642;-0.974;2022-11-20T14:56:22;7.93;;;2.88;;
67378;SDS011;54262;44.642;-0.974;2022-11-20T14:58:58;7.00;;;2.60;;
67378;SDS011;54262;44.642;-0.974;2022-11-20T15:01:28;8.98;;;3.33;;
67378;SDS011;54262;44.642;-0.974;2022-11-20T15:04:08;4.57;;;2.65;;
67378;SDS011;54262;44.642;-0.974;2022-11-20T15:06:35;8.60;;;2.72;;
67378;SDS011;54262;44.642;-0.974;2022-11-20T15:09:02;5.10;;;2.67;;
67378;SDS011;54262;44.642;-0.974;2022-11-20T15:11:29;7.70;;;3.13;;
67378;SDS011;54262;44.642;-0.974;2022-11-20T15:13:56;9.10;;;2.83;;
67378;SDS011;54262;44.642;-0.974;2022-11-20T15:16:23;4.18;;;2.63;;
67378;SDS011;54262;44.642;-0.974;2022-11-20T15:18:49;19.20;;;4.75;;
67378;SDS011;54262;44.642;-0.974;2022-11-20T15:21:17;25.67;;;6.45;;
67378;SDS011;54262;44.642;-0.974;2022-11-20T15:23:44;21.30;;;5.40;;
67378;SDS011;54262;44.642;-0.974;2022-11-20T15:26:11;15.50;;;6.05;;
67378;SDS011;54262;44.642;-0.974;2022-11-20T15:28:41;18.90;;;6.43;;
67378;SDS011;54262;44.642;-0.974;2022-11-20T15:31:10;6.60;;;3.22;;
67378;SDS011;54262;44.642;-0.974;2022-11-20T15:33:37;4.88;;;2.88;;
67378;SDS011;54262;44.642;-0.974;2022-11-20T15:36:03;11.82;;;3.95;;
67378;SDS011;54262;44.642;-0.974;2022-11-20T15:38:29;18.75;;;5.10;;
67378;SDS011;54262;44.642;-0.974;2022-11-20T15:40:55;21.80;;;5.53;;
67378;SDS011;54262;44.642;-0.974;2022-11-20T15:43:22;17.45;;;4.72;;
67378;SDS011;54262;44.642;-0.974;2022-11-20T15:45:52;13.48;;;4.65;;
67378;SDS011;54262;44.642;-0.974;2022-11-20T15:50:49;25.33;;;5.63;;
67378;SDS011;54262;44.642;-0.974;2022-11-20T15:53:15;19.02;;;6.00;;
67378;SDS011;54262;44.642;-0.974;2022-11-20T15:55:41;21.65;;;5.97;;
67378;SDS011;54262;44.642;-0.974;2022-11-20T15:58:08;14.95;;;4.43;;
67378;SDS011;54262;44.642;-0.974;2022-11-20T16:00:34;14.40;;;4.13;;
67378;SDS011;54262;44.642;-0.974;2022-11-20T16:03:00;12.93;;;4.03;;
67378;SDS011;54262;44.642;-0.974;2022-11-20T16:05:29;16.80;;;5.45;;
67378;SDS011;54262;44.642;-0.974;2022-11-20T16:07:55;11.38;;;3.65;;
67378;SDS011;54262;44.642;-0.974;2022-11-20T16:10:22;15.95;;;5.45;;
67378;SDS011;54262;44.642;-0.974;2022-11-20T16:12:48;15.43;;;5.35;;
67378;SDS011;54262;44.642;-0.974;2022-11-20T16:15:33;20.80;;;5.85;;